createdAt,value
2022-12-14T00:03:22.428Z,-1.93
2022-12-14T00:07:26.940Z,-1.95
2022-12-14T00:11:30.161Z,-1.93
2022-12-14T00:15:33.680Z,-1.88
2022-12-14T00:19:36.832Z,-1.93
2022-12-14T00:23:42.731Z,-1.92
2022-12-14T00:27:46.904Z,-1.76
2022-12-14T00:31:51.170Z,-1.79
2022-12-14T00:35:54.316Z,-1.81
2022-12-14T00:39:58.665Z,-1.73
2022-12-14T00:44:01.720Z,-1.78
2022-12-14T00:48:05.013Z,-1.70
2022-12-14T00:52:08.017Z,-1.68
2022-12-14T00:56:13.549Z,-1.67
2022-12-14T01:00:17.174Z,-1.63
2022-12-14T01:04:22.448Z,-1.65
2022-12-14T01:08:25.878Z,-1.68
2022-12-14T01:12:30.341Z,-1.66
2022-12-14T01:16:33.405Z,-1.63
2022-12-14T01:20:37.328Z,-1.77
2022-12-14T01:24:40.507Z,-1.81
2022-12-14T01:28:45.874Z,-1.82
2022-12-14T01:32:48.926Z,-1.91
2022-12-14T01:36:51.917Z,-1.95
2022-12-14T01:40:58.471Z,-1.92
2022-12-14T01:45:02.835Z,-2.02
2022-12-14T01:49:12.822Z,-2.10
2022-12-14T01:53:19.760Z,-2.10
2022-12-14T01:57:27.545Z,-2.08
2022-12-14T02:01:32.364Z,-2.05
2022-12-14T02:05:40.899Z,-2.08
2022-12-14T02:09:45.782Z,-2.03
2022-12-14T02:13:48.805Z,-1.98
2022-12-14T02:17:53.918Z,-2.00
2022-12-14T02:22:24.961Z,-1.98
2022-12-14T02:26:47.059Z,-1.91
2022-12-14T02:30:57.143Z,-1.93
2022-12-14T02:35:06.145Z,-1.81
2022-12-14T02:39:18.013Z,-1.87
2022-12-14T02:43:29.187Z,-1.84
2022-12-14T02:47:40.423Z,-1.78
2022-12-14T02:51:54.080Z,-1.84
2022-12-14T02:56:01.833Z,-1.85
2022-12-14T03:00:07.108Z,-1.92
2022-12-14T03:04:12.061Z,-1.92
2022-12-14T03:08:17.876Z,-1.90
2022-12-14T03:12:22.521Z,-1.95
2022-12-14T03:16:28.467Z,-1.85
2022-12-14T03:20:35.189Z,-1.89
2022-12-14T03:24:42.422Z,-1.89
2022-12-14T03:28:51.567Z,-1.92
2022-12-14T03:33:01.299Z,-1.95
2022-12-14T03:37:13.903Z,-2.00
2022-12-14T03:41:24.627Z,-1.94
2022-12-14T03:45:32.097Z,-1.87
2022-12-14T03:49:51.680Z,-1.94
2022-12-14T03:54:05.705Z,-2.03
2022-12-14T03:58:24.989Z,-2.09
2022-12-14T04:02:36.277Z,-2.09
2022-12-14T04:06:50.956Z,-2.18
2022-12-14T04:11:16.519Z,-2.15
2022-12-14T04:15:42.483Z,-2.15
2022-12-14T04:19:50.379Z,-2.14
2022-12-14T04:24:17.455Z,-2.16
2022-12-14T04:28:43.947Z,-2.10
2022-12-14T04:32:50.320Z,-2.11
2022-12-14T04:36:56.555Z,-2.13
2022-12-14T04:41:02.976Z,-2.09
2022-12-14T04:45:11.800Z,-2.10
2022-12-14T04:49:21.548Z,-2.11
2022-12-14T04:53:28.461Z,-2.08
2022-12-14T04:57:37.887Z,-2.06
2022-12-14T05:01:52.494Z,-2.03
2022-12-14T05:06:05.479Z,-1.95
2022-12-14T05:10:14.967Z,-1.92
2022-12-14T05:14:22.777Z,-2.01
2022-12-14T05:18:27.556Z,-2.05
2022-12-14T05:22:31.707Z,-1.89
2022-12-14T05:26:35.028Z,-1.93
2022-12-14T05:30:38.223Z,-1.97
2022-12-14T05:34:42.694Z,-1.91
2022-12-14T05:38:45.726Z,-1.91
2022-12-14T05:42:55.274Z,-1.95
2022-12-14T05:46:58.835Z,-1.99
2022-12-14T05:51:08.545Z,-1.95
2022-12-14T05:55:11.557Z,-2.08
2022-12-14T05:59:15.919Z,-2.05
2022-12-14T06:03:19.011Z,-2.11
2022-12-14T06:07:27.686Z,-2.20
2022-12-14T06:11:31.404Z,-2.19
2022-12-14T06:15:34.469Z,-2.18
2022-12-14T06:19:37.510Z,-2.11
2022-12-14T06:23:43.071Z,-2.05
2022-12-14T06:27:46.198Z,-2.09
2022-12-14T06:31:50.029Z,-2.14
2022-12-14T06:35:53.093Z,-2.16
2022-12-14T06:39:57.517Z,-2.10
2022-12-14T06:44:06.853Z,-2.11
2022-12-14T06:48:09.980Z,-2.04
2022-12-14T06:52:13.027Z,-2.05
2022-12-14T06:56:18.251Z,-2.07
2022-12-14T07:00:22.541Z,-2.05
2022-12-14T07:04:25.710Z,-2.06
2022-12-14T07:08:30.269Z,-2.03
2022-12-14T07:12:34.974Z,-1.98
2022-12-14T07:16:38.028Z,-1.97
2022-12-14T07:20:41.108Z,-1.99
2022-12-14T07:24:44.278Z,-1.98
2022-12-14T07:28:48.950Z,-1.96
2022-12-14T07:32:52.017Z,-1.93
2022-12-14T07:36:55.909Z,-1.88
2022-12-14T07:41:03.619Z,-1.88
2022-12-14T07:45:08.903Z,-1.88
2022-12-14T07:49:13.249Z,-1.89
2022-12-14T07:53:17.061Z,-1.81
2022-12-14T07:57:20.267Z,-1.84
2022-12-14T08:01:27.550Z,-1.76
2022-12-14T08:05:30.767Z,-1.83
2022-12-14T08:09:33.844Z,-1.90
2022-12-14T08:13:38.956Z,-1.82
2022-12-14T08:17:43.414Z,-1.78
2022-12-14T08:21:46.795Z,-1.91
2022-12-14T08:25:53.952Z,-1.89
2022-12-14T08:29:57.582Z,-1.79
2022-12-14T08:34:03.259Z,-1.84
2022-12-14T08:38:08.464Z,-1.74
2022-12-14T08:42:11.584Z,-1.67
2022-12-14T08:46:14.741Z,-1.59
2022-12-14T08:50:19.399Z,-1.51
2022-12-14T08:54:24.279Z,-1.43
2022-12-14T08:58:27.584Z,-1.32
2022-12-14T09:02:30.977Z,-1.29
2022-12-14T09:06:37.755Z,-1.24
2022-12-14T09:10:40.831Z,-1.10
2022-12-14T09:14:46.636Z,-1.18
2022-12-14T09:18:52.490Z,-1.17
2022-12-14T09:22:56.984Z,-1.19
2022-12-14T09:27:00.677Z,-1.11
2022-12-14T09:31:06.148Z,-1.02
2022-12-14T09:35:09.831Z,-1.00
2022-12-14T09:39:15.471Z,-0.91
2022-12-14T09:43:37.009Z,-1.00
2022-12-14T09:47:48.014Z,-0.83
2022-12-14T09:51:51.550Z,-0.75
2022-12-14T09:55:58.096Z,-0.75
2022-12-14T10:00:01.495Z,-0.34
2022-12-14T10:04:12.951Z,-0.26
2022-12-14T10:08:22.641Z,-0.63
2022-12-14T10:12:46.682Z,-0.63
2022-12-14T10:16:57.801Z,-0.50
2022-12-14T10:21:05.639Z,-0.16
2022-12-14T10:25:14.787Z,0.09
2022-12-14T10:29:27.656Z,0.60
2022-12-14T10:33:32.690Z,0.72
2022-12-14T10:37:39.211Z,0.74
2022-12-14T10:41:49.994Z,0.31
2022-12-14T10:46:14.582Z,0.80
2022-12-14T10:50:25.727Z,0.79
2022-12-14T10:54:33.885Z,1.38
2022-12-14T10:58:36.960Z,1.13
2022-12-14T11:02:44.362Z,1.22
2022-12-14T11:06:53.146Z,2.24
2022-12-14T11:11:14.011Z,2.17
2022-12-14T11:15:25.620Z,2.53
2022-12-14T11:19:30.698Z,2.06
2022-12-14T11:23:38.472Z,2.27
2022-12-14T11:27:41.583Z,1.38
2022-12-14T11:31:46.603Z,1.71
2022-12-14T11:35:53.132Z,2.90
2022-12-14T11:39:58.385Z,3.02
2022-12-14T11:44:07.859Z,2.50
2022-12-14T11:48:19.868Z,2.70
2022-12-14T11:52:26.723Z,2.37
2022-12-14T11:56:30.175Z,2.28
2022-12-14T12:00:47.367Z,2.65
2022-12-14T12:04:56.092Z,2.40
2022-12-14T12:09:02.866Z,3.19
2022-12-14T12:13:08.283Z,3.44
2022-12-14T12:17:19.322Z,2.64
2022-12-14T12:21:27.734Z,3.11
2022-12-14T12:25:37.580Z,2.91
2022-12-14T12:29:46.939Z,4.37
2022-12-14T12:33:55.557Z,6.98
2022-12-14T12:38:02.510Z,3.55
2022-12-14T12:42:19.431Z,3.45
2022-12-14T12:46:28.550Z,3.53
2022-12-14T12:50:37.725Z,3.57
2022-12-14T12:54:46.838Z,3.75
2022-12-14T12:58:53.740Z,5.84
2022-12-14T13:03:02.232Z,7.44
2022-12-14T13:07:12.102Z,6.76
2022-12-14T13:11:27.798Z,4.71
2022-12-14T13:15:36.813Z,4.81
2022-12-14T13:19:54.514Z,3.25
2022-12-14T13:24:00.643Z,3.79
2022-12-14T13:28:17.132Z,2.76
2022-12-14T13:32:40.995Z,3.35
2022-12-14T13:37:01.329Z,4.69
2022-12-14T13:41:23.986Z,2.85
2022-12-14T13:45:32.637Z,2.70
2022-12-14T13:49:37.117Z,3.25
2022-12-14T13:53:48.203Z,3.76
2022-12-14T13:57:53.614Z,4.24
2022-12-14T14:02:00.783Z,3.71
2022-12-14T14:06:09.336Z,4.27
2022-12-14T14:10:30.147Z,3.46
2022-12-14T14:14:46.390Z,2.73
2022-12-14T14:18:55.024Z,4.10
2022-12-14T14:23:37.925Z,3.68
2022-12-14T14:27:50.193Z,3.44
2022-12-14T14:31:57.055Z,2.27
2022-12-14T14:36:09.819Z,2.69
2022-12-14T14:40:44.094Z,2.65
2022-12-14T14:44:53.733Z,1.93
2022-12-14T14:48:57.762Z,1.98
2022-12-14T14:53:12.504Z,1.18
2022-12-14T14:57:36.211Z,1.31
2022-12-14T15:01:44.039Z,1.40
2022-12-14T15:05:47.902Z,1.17
2022-12-14T15:09:58.312Z,0.33
2022-12-14T15:14:11.979Z,-0.20
2022-12-14T15:18:16.415Z,-0.62
2022-12-14T15:22:22.617Z,-0.77
2022-12-14T15:26:27.660Z,-0.87
2022-12-14T15:30:33.386Z,-1.12
2022-12-14T15:34:36.515Z,-1.46
2022-12-14T15:38:39.606Z,-1.57
2022-12-14T15:42:48.032Z,-1.79
2022-12-14T15:46:56.245Z,-1.91
2022-12-14T15:51:04.019Z,-2.08
2022-12-14T15:55:21.082Z,-2.25
2022-12-14T15:59:29.449Z,-2.30
2022-12-14T16:03:37.916Z,-2.40
2022-12-14T16:07:45.005Z,-2.48
2022-12-14T16:11:50.726Z,-2.58
2022-12-14T16:15:54.653Z,-2.75
2022-12-14T16:20:01.473Z,-2.90
2022-12-14T16:24:22.235Z,-2.45
2022-12-14T16:28:29.772Z,-2.39
2022-12-14T16:32:33.140Z,-2.54
2022-12-14T16:36:38.384Z,-2.79
2022-12-14T16:40:43.966Z,-2.96
2022-12-14T16:44:47.266Z,-3.15
2022-12-14T16:49:21.799Z,-3.17
2022-12-14T16:53:29.794Z,-3.33
2022-12-14T16:57:33.297Z,-3.55
2022-12-14T17:01:43.373Z,-3.53
2022-12-14T17:05:53.265Z,-3.58
2022-12-14T17:09:58.150Z,-3.62
2022-12-14T17:14:01.209Z,-3.74
2022-12-14T17:18:08.346Z,-3.79
2022-12-14T17:22:20.257Z,-3.82
2022-12-14T17:26:27.235Z,-3.99
2022-12-14T17:30:30.443Z,-3.91
2022-12-14T17:34:33.516Z,-4.11
2022-12-14T17:38:36.832Z,-4.16
2022-12-14T17:42:43.189Z,-4.31
2022-12-14T17:46:48.811Z,-4.20
2022-12-14T17:50:52.259Z,-4.32
2022-12-14T17:54:56.092Z,-4.33
2022-12-14T17:59:01.081Z,-4.40
2022-12-14T18:03:05.671Z,-4.50
2022-12-14T18:07:11.219Z,-4.67
2022-12-14T18:11:16.958Z,-4.75
2022-12-14T18:15:25.494Z,-4.74
2022-12-14T18:19:30.098Z,-4.47
2022-12-14T18:23:34.949Z,-4.66
2022-12-14T18:27:40.098Z,-4.54
2022-12-14T18:31:45.408Z,-4.51
2022-12-14T18:35:54.361Z,-4.49
2022-12-14T18:39:57.513Z,-4.77
2022-12-14T18:44:01.863Z,-4.96
2022-12-14T18:48:09.218Z,-5.08
2022-12-14T18:52:14.221Z,-5.17
2022-12-14T18:56:17.958Z,-4.91
2022-12-14T19:00:23.915Z,-4.74
2022-12-14T19:04:28.348Z,-4.56
2022-12-14T19:08:32.167Z,-5.06
2022-12-14T19:12:35.539Z,-5.20
2022-12-14T19:16:39.095Z,-5.30
2022-12-14T19:20:45.991Z,-5.40
2022-12-14T19:24:52.888Z,-5.50
2022-12-14T19:28:56.133Z,-5.61
2022-12-14T19:32:59.680Z,-5.52
2022-12-14T19:37:04.156Z,-5.31
2022-12-14T19:41:11.143Z,-5.33
2022-12-14T19:45:15.048Z,-5.26
2022-12-14T19:49:19.275Z,-5.46
2022-12-14T19:53:24.355Z,-5.68
2022-12-14T19:57:28.106Z,-5.71
2022-12-14T20:01:35.205Z,-5.79
2022-12-14T20:05:38.800Z,-5.81
2022-12-14T20:09:44.239Z,-5.91
2022-12-14T20:13:51.845Z,-6.02
2022-12-14T20:17:59.903Z,-5.98
2022-12-14T20:22:04.131Z,-6.00
2022-12-14T20:26:11.253Z,-5.98
2022-12-14T20:30:14.495Z,-6.08
2022-12-14T20:34:17.651Z,-6.13
2022-12-14T20:38:20.949Z,-6.26
2022-12-14T20:42:27.310Z,-6.35
2022-12-14T20:46:32.641Z,-6.14
2022-12-14T20:50:36.278Z,-6.10
2022-12-14T20:54:39.443Z,-6.26
2022-12-14T20:58:48.182Z,-6.39
2022-12-14T21:02:51.548Z,-6.51
2022-12-14T21:06:54.885Z,-6.44
2022-12-14T21:11:22.938Z,-6.46
2022-12-14T21:15:27.516Z,-6.38
2022-12-14T21:19:31.193Z,-6.60
2022-12-14T21:23:34.366Z,-6.72
2022-12-14T21:27:39.613Z,-6.68
2022-12-14T21:31:45.667Z,-6.58
2022-12-14T21:35:48.737Z,-6.80
2022-12-14T21:39:54.971Z,-6.86
2022-12-14T21:44:00.628Z,-6.66
2022-12-14T21:48:05.204Z,-6.66
2022-12-14T21:52:08.541Z,-6.79
2022-12-14T21:56:29.207Z,-6.84
2022-12-14T22:00:32.270Z,-6.85
2022-12-14T22:04:39.939Z,-7.01
2022-12-14T22:08:43.262Z,-6.84
2022-12-14T22:12:46.350Z,-6.97
2022-12-14T22:16:50.309Z,-6.66
2022-12-14T22:21:03.751Z,-6.83
2022-12-14T22:25:07.449Z,-6.81
2022-12-14T22:29:10.908Z,-6.48
2022-12-14T22:33:14.242Z,-6.50
2022-12-14T22:37:18.661Z,-6.61
2022-12-14T22:41:21.872Z,-6.87
2022-12-14T22:45:24.970Z,-6.94
2022-12-14T22:49:28.029Z,-6.52
2022-12-14T22:53:32.685Z,-6.76
2022-12-14T22:57:41.639Z,-7.09
2022-12-14T23:01:49.625Z,-7.12
2022-12-14T23:05:58.775Z,-7.23
2022-12-14T23:10:24.240Z,-7.29
2022-12-14T23:14:44.694Z,-7.35
2022-12-14T23:19:05.266Z,-7.20
2022-12-14T23:23:25.966Z,-7.38
2022-12-14T23:27:48.003Z,-7.23
2022-12-14T23:32:08.616Z,-7.38
2022-12-14T23:36:29.342Z,-7.32
2022-12-14T23:40:49.787Z,-7.18
2022-12-14T23:45:11.874Z,-7.09
2022-12-14T23:49:32.962Z,-7.24
2022-12-14T23:53:53.589Z,-7.46
2022-12-14T23:58:15.971Z,-7.26
